Time;durP1;ratioP1;P1;durP2;ratioP2;P2;SDS_P1;SDS_P2;PMS_P1;PMS_P2;Temp;Humidity;BMP_temperature;BMP_pressure;BME280_temperature;BME280_humidity;BME280_pressure;Samples;Min_cycle;Max_cycle;Signal;HPM_P1;HPM_P2
2023/05/20 00:00:50;;;;;;;14.70;7.18;;;10.30;99.90;;;;;;5006546;28;20499;-78
2023/05/20 00:03:16;;;;;;;19.90;7.07;;;10.20;99.90;;;;;;4996993;28;20423;-90
2023/05/20 00:05:42;;;;;;;16.25;6.95;;;10.30;99.90;;;;;;4995536;28;20435;-78
2023/05/20 00:08:08;;;;;;;14.77;7.97;;;10.20;99.90;;;;;;5002858;28;20428;-87
2023/05/20 00:10:35;;;;;;;14.30;6.60;;;10.10;99.90;;;;;;5024750;28;20439;-76
2023/05/20 00:13:01;;;;;;;15.85;7.03;;;10.10;99.90;;;;;;5018709;28;20435;-89
2023/05/20 00:15:27;;;;;;;16.52;6.68;;;10.10;99.90;;;;;;5008064;28;20499;-89
2023/05/20 00:17:53;;;;;;;13.38;7.22;;;10.20;99.90;;;;;;5015436;28;20425;-84
2023/05/20 00:20:19;;;;;;;17.57;7.20;;;10.40;99.90;;;;;;5013731;28;20540;-89
2023/05/20 00:22:44;;;;;;;21.07;7.70;;;10.10;99.90;;;;;;5012265;28;20918;-91
2023/05/20 00:25:10;;;;;;;15.53;6.77;;;10.10;99.90;;;;;;5015919;28;20424;-89
2023/05/20 00:27:35;;;;;;;17.70;7.75;;;10.10;99.90;;;;;;5016251;28;20437;-90
2023/05/20 00:30:01;;;;;;;16.92;7.03;;;10.10;99.90;;;;;;5019843;28;20417;-76
2023/05/20 00:32:27;;;;;;;14.35;6.35;;;10.10;99.90;;;;;;4992491;28;20539;-80
2023/05/20 00:34:57;;;;;;;18.65;7.32;;;10.00;99.90;;;;;;5036123;28;20445;-76
2023/05/20 00:37:23;;;;;;;12.65;5.88;;;10.10;99.90;;;;;;5028923;28;20493;-86
2023/05/20 00:39:49;;;;;;;18.55;7.60;;;10.00;99.90;;;;;;5019611;28;20432;-88
2023/05/20 00:42:21;;;;;;;14.63;6.53;;;10.00;99.90;;;;;;5023589;28;20437;-95
2023/05/20 00:44:47;;;;;;;18.50;6.88;;;10.00;99.90;;;;;;5002537;28;20424;-87
2023/05/20 00:47:15;;;;;;;11.77;5.75;;;10.00;99.90;;;;;;4989579;28;20449;-87
2023/05/20 00:49:41;;;;;;;13.55;5.72;;;10.00;99.90;;;;;;5020315;28;20447;-90
2023/05/20 00:52:07;;;;;;;14.52;6.75;;;10.10;99.90;;;;;;5029978;28;20432;-77
2023/05/20 00:54:33;;;;;;;12.27;6.07;;;10.00;99.90;;;;;;5030618;28;20475;-77
2023/05/20 00:56:59;;;;;;;16.23;6.80;;;10.00;99.90;;;;;;5035959;28;20890;-75
2023/05/20 00:59:25;;;;;;;18.58;7.10;;;9.90;99.90;;;;;;5032731;28;20478;-90
2023/05/20 01:01:51;;;;;;;19.65;7.07;;;10.00;99.90;;;;;;5044463;28;20419;-76
2023/05/20 01:04:17;;;;;;;13.85;6.00;;;9.90;99.90;;;;;;5031850;28;20416;-77
2023/05/20 01:06:45;;;;;;;13.93;7.10;;;9.90;99.90;;;;;;5030482;28;20455;-78
2023/05/20 01:09:12;;;;;;;13.98;7.10;;;9.90;99.90;;;;;;5028889;28;20436;-75
2023/05/20 01:11:44;;;;;;;20.47;7.20;;;9.90;99.90;;;;;;5030085;28;20960;-80
2023/05/20 01:14:12;;;;;;;12.15;6.32;;;10.00;99.90;;;;;;5099938;22;20431;-93
2023/05/20 01:16:38;;;;;;;11.57;6.28;;;10.00;99.90;;;;;;5026938;28;20474;-91
2023/05/20 01:19:08;;;;;;;14.90;6.67;;;9.90;99.90;;;;;;5031461;28;20449;-77
2023/05/20 01:21:35;;;;;;;14.10;6.13;;;10.00;99.90;;;;;;5047708;28;20418;-78
2023/05/20 01:24:02;;;;;;;13.40;6.88;;;9.80;99.90;;;;;;5049883;28;20399;-74
2023/05/20 01:26:28;;;;;;;14.25;6.72;;;9.90;99.90;;;;;;5051092;28;20430;-77
2023/05/20 01:28:56;;;;;;;11.87;6.73;;;9.80;99.90;;;;;;5050711;28;20478;-79
2023/05/20 01:31:30;;;;;;;15.00;6.18;;;9.90;99.90;;;;;;5050907;28;20467;-79
2023/05/20 01:33:57;;;;;;;14.40;6.90;;;9.70;99.90;;;;;;5049494;28;20411;-77
2023/05/20 01:36:23;;;;;;;16.95;6.68;;;9.80;99.90;;;;;;5050708;28;20402;-76
2023/05/20 01:38:51;;;;;;;17.70;6.35;;;9.80;99.90;;;;;;5050068;28;20445;-78
2023/05/20 01:41:17;;;;;;;18.42;7.25;;;9.80;99.90;;;;;;5047027;28;20422;-79
2023/05/20 01:43:43;;;;;;;12.95;6.15;;;9.80;99.90;;;;;;5052215;28;20422;-76
2023/05/20 01:46:09;;;;;;;14.10;6.97;;;9.70;99.90;;;;;;5048084;28;20447;-78
2023/05/20 01:48:35;;;;;;;11.70;6.40;;;9.70;99.90;;;;;;5048420;28;20472;-77
2023/05/20 01:51:00;;;;;;;17.67;7.87;;;9.70;99.90;;;;;;5041798;28;20439;-86
2023/05/20 01:53:26;;;;;;;14.27;6.87;;;9.70;99.90;;;;;;5042846;28;20451;-90
2023/05/20 01:55:52;;;;;;;15.77;6.60;;;9.70;99.90;;;;;;5044803;28;20765;-80
2023/05/20 01:58:17;;;;;;;16.00;6.30;;;9.80;99.90;;;;;;5029158;28;20510;-78
2023/05/20 02:00:43;;;;;;;12.13;7.15;;;9.70;99.90;;;;;;5043174;28;20450;-76
2023/05/20 02:03:10;;;;;;;11.43;6.60;;;9.70;99.90;;;;;;5044879;28;20435;-83
2023/05/20 02:05:35;;;;;;;15.00;7.27;;;9.70;99.90;;;;;;5044352;28;20458;-82
2023/05/20 02:08:01;;;;;;;16.93;7.27;;;9.60;99.90;;;;;;5043736;28;20522;-77
2023/05/20 02:10:26;;;;;;;12.73;6.50;;;10.00;99.90;;;;;;5047232;28;20431;-81
2023/05/20 02:12:52;;;;;;;14.43;6.63;;;9.60;99.90;;;;;;5046899;28;20433;-80
2023/05/20 02:15:18;;;;;;;15.38;7.28;;;9.60;99.90;;;;;;5042746;28;20423;-78
2023/05/20 02:17:43;;;;;;;11.60;6.97;;;9.60;99.90;;;;;;5048874;28;20427;-78
2023/05/20 02:20:10;;;;;;;18.20;7.65;;;9.60;99.90;;;;;;5047502;28;20446;-78
2023/05/20 02:22:36;;;;;;;12.27;6.40;;;9.60;99.90;;;;;;5044167;28;20436;-91
2023/05/20 02:25:02;;;;;;;12.47;7.10;;;9.60;99.90;;;;;;5037834;28;20431;-89
2023/05/20 02:27:27;;;;;;;11.68;6.50;;;9.60;99.90;;;;;;5034282;28;20434;-93
2023/05/20 02:29:53;;;;;;;16.17;7.15;;;9.60;99.90;;;;;;5031043;28;20438;-90
2023/05/20 02:32:20;;;;;;;14.10;6.30;;;9.60;99.90;;;;;;5014004;28;20431;-84
2023/05/20 02:34:45;;;;;;;12.57;6.50;;;9.50;99.90;;;;;;5038500;28;20435;-76
2023/05/20 02:37:11;;;;;;;14.23;6.77;;;9.50;99.90;;;;;;5033862;28;20433;-85
2023/05/20 02:39:37;;;;;;;15.83;7.07;;;9.40;99.90;;;;;;5027907;28;20431;-84
2023/05/20 02:42:03;;;;;;;11.67;6.97;;;9.50;99.90;;;;;;5022055;28;20928;-87
2023/05/20 02:44:29;;;;;;;13.98;6.60;;;9.40;99.90;;;;;;5026048;28;20620;-82
2023/05/20 02:46:55;;;;;;;12.18;6.38;;;9.40;99.90;;;;;;5030678;28;20929;-85
2023/05/20 02:49:20;;;;;;;12.10;5.95;;;9.40;99.90;;;;;;5035581;28;20426;-85
2023/05/20 02:51:46;;;;;;;13.80;7.27;;;9.50;99.90;;;;;;5038778;28;20423;-76
2023/05/20 02:54:11;;;;;;;12.10;6.50;;;9.40;99.90;;;;;;5043831;28;20423;-84
2023/05/20 02:56:37;;;;;;;12.50;6.50;;;9.30;99.90;;;;;;5041235;28;20504;-81
2023/05/20 02:59:03;;;;;;;12.68;6.97;;;9.40;99.90;;;;;;5040015;28;20442;-82
2023/05/20 03:01:29;;;;;;;8.07;5.30;;;9.50;99.90;;;;;;5047123;28;20441;-76
2023/05/20 03:03:55;;;;;;;11.55;6.35;;;9.40;99.90;;;;;;5044094;28;20411;-74
2023/05/20 03:06:20;;;;;;;12.90;6.70;;;9.50;99.90;;;;;;5034325;28;20427;-88
2023/05/20 03:08:46;;;;;;;13.07;6.43;;;9.40;99.90;;;;;;5028839;28;20418;-84
2023/05/20 03:11:12;;;;;;;9.70;6.27;;;9.40;99.90;;;;;;5042568;28;20482;-74
2023/05/20 03:13:38;;;;;;;11.47;6.97;;;9.40;99.90;;;;;;5047908;28;20474;-75
2023/05/20 03:16:04;;;;;;;11.20;6.50;;;9.30;99.90;;;;;;5044132;28;20457;-74
2023/05/20 03:18:29;;;;;;;13.77;6.95;;;9.30;99.90;;;;;;5042825;28;20438;-86
2023/05/20 03:20:55;;;;;;;13.20;5.47;;;9.40;99.90;;;;;;5027863;28;20531;-87
2023/05/20 03:23:21;;;;;;;13.50;6.73;;;9.30;99.90;;;;;;5026103;28;20435;-75
2023/05/20 03:25:47;;;;;;;10.95;6.25;;;9.70;99.90;;;;;;5029554;28;20419;-88
2023/05/20 03:28:12;;;;;;;10.10;6.27;;;9.30;99.90;;;;;;5027151;28;20468;-89
2023/05/20 03:30:38;;;;;;;9.07;5.87;;;9.30;99.90;;;;;;5023123;28;20494;-78
2023/05/20 03:33:04;;;;;;;11.57;6.07;;;9.30;99.90;;;;;;5023206;28;20566;-81
2023/05/20 03:35:30;;;;;;;10.93;6.13;;;9.30;99.90;;;;;;5024215;28;20917;-78
2023/05/20 03:37:57;;;;;;;12.95;7.03;;;9.30;99.90;;;;;;5024917;28;20437;-88
2023/05/20 03:40:23;;;;;;;10.00;6.07;;;9.30;99.90;;;;;;5028402;28;20418;-84
2023/05/20 03:42:50;;;;;;;12.85;5.55;;;9.30;99.90;;;;;;5029536;28;20497;-87
2023/05/20 03:45:16;;;;;;;9.35;5.40;;;9.30;99.90;;;;;;5029241;28;20486;-88
2023/05/20 03:47:42;;;;;;;7.53;5.47;;;9.30;99.90;;;;;;5028455;28;20438;-87
2023/05/20 03:50:08;;;;;;;9.83;5.33;;;9.30;99.90;;;;;;5026499;28;21432;-86
2023/05/20 03:52:33;;;;;;;8.18;5.30;;;9.20;99.90;;;;;;5025903;28;20430;-80
2023/05/20 03:54:59;;;;;;;9.53;5.47;;;9.30;99.90;;;;;;5026515;28;20439;-89
2023/05/20 03:57:25;;;;;;;10.43;5.07;;;9.30;99.90;;;;;;5026421;28;20513;-80
2023/05/20 03:59:51;;;;;;;9.73;5.28;;;9.40;99.90;;;;;;5028901;28;20435;-90
2023/05/20 04:02:16;;;;;;;10.30;5.75;;;9.30;99.90;;;;;;5030402;28;20441;-87
2023/05/20 04:04:42;;;;;;;9.50;5.10;;;9.30;99.90;;;;;;5031269;28;20427;-88
2023/05/20 04:07:10;;;;;;;9.32;4.90;;;9.40;99.90;;;;;;5027335;28;20466;-87
2023/05/20 04:09:37;;;;;;;13.23;4.85;;;9.40;99.90;;;;;;5025856;28;20921;-84
2023/05/20 04:12:06;;;;;;;9.73;4.40;;;9.30;99.90;;;;;;5028550;28;20832;-78
2023/05/20 04:14:35;;;;;;;8.13;4.80;;;9.40;99.90;;;;;;5027424;28;20502;-85
2023/05/20 04:17:04;;;;;;;12.40;5.80;;;9.40;99.90;;;;;;5028497;28;20506;-82
2023/05/20 04:19:30;;;;;;;9.13;4.80;;;9.30;99.90;;;;;;5028972;28;20459;-83
2023/05/20 04:21:56;;;;;;;9.02;4.40;;;9.30;99.90;;;;;;5029755;28;20490;-82
2023/05/20 04:24:24;;;;;;;7.15;4.28;;;9.30;99.90;;;;;;5032849;28;20861;-76
2023/05/20 04:26:51;;;;;;;7.75;4.25;;;9.30;99.90;;;;;;5033944;28;20438;-82
2023/05/20 04:29:17;;;;;;;8.30;4.17;;;9.40;99.90;;;;;;5027543;28;20446;-75
2023/05/20 04:31:45;;;;;;;7.68;4.57;;;9.30;99.90;;;;;;5029048;28;20419;-86
2023/05/20 04:34:11;;;;;;;7.68;4.13;;;9.40;99.90;;;;;;5026713;28;20473;-86
2023/05/20 04:36:37;;;;;;;10.85;4.72;;;9.40;99.90;;;;;;5027815;28;20520;-80
2023/05/20 04:39:04;;;;;;;6.25;4.00;;;9.40;99.90;;;;;;5028227;28;21259;-84
2023/05/20 04:41:30;;;;;;;6.33;3.60;;;9.50;99.90;;;;;;5027613;28;20478;-79
2023/05/20 04:44:00;;;;;;;8.95;4.20;;;9.50;99.90;;;;;;5027749;28;20433;-86
2023/05/20 04:46:26;;;;;;;9.02;4.07;;;9.60;99.90;;;;;;5023918;28;20450;-86
2023/05/20 04:48:52;;;;;;;6.17;4.10;;;9.70;99.90;;;;;;5027869;28;20988;-80
2023/05/20 04:51:18;;;;;;;8.32;3.90;;;9.60;99.90;;;;;;5023988;28;20430;-83
2023/05/20 04:53:44;;;;;;;5.82;4.05;;;9.60;99.90;;;;;;5024896;28;20472;-81
2023/05/20 04:56:10;;;;;;;9.67;3.50;;;9.60;99.90;;;;;;5023549;28;21048;-83
2023/05/20 04:58:36;;;;;;;6.73;4.13;;;9.70;99.90;;;;;;5021670;28;20553;-79
2023/05/20 05:01:02;;;;;;;10.45;3.55;;;9.70;99.90;;;;;;5027594;28;20434;-85
2023/05/20 05:03:28;;;;;;;6.72;3.42;;;9.80;99.90;;;;;;5027654;28;20553;-80
2023/05/20 05:05:57;;;;;;;7.27;3.13;;;9.80;99.90;;;;;;5027712;28;20901;-83
2023/05/20 05:08:24;;;;;;;6.85;3.47;;;9.90;99.90;;;;;;5026343;28;20513;-86
2023/05/20 05:10:50;;;;;;;5.82;3.47;;;10.10;99.90;;;;;;5023604;28;20419;-87
2023/05/20 05:13:15;;;;;;;6.47;3.65;;;10.00;99.90;;;;;;5028189;28;21010;-81
2023/05/20 05:15:41;;;;;;;6.22;3.35;;;10.10;99.90;;;;;;5027341;28;20438;-89
2023/05/20 05:18:07;;;;;;;6.33;2.73;;;10.10;99.90;;;;;;5026406;28;20436;-83
2023/05/20 05:20:32;;;;;;;7.10;3.10;;;10.30;99.90;;;;;;5025918;28;20793;-80
2023/05/20 05:22:58;;;;;;;7.83;3.53;;;10.40;99.90;;;;;;5022606;28;20438;-87
2023/05/20 05:25:24;;;;;;;8.05;3.63;;;10.40;99.90;;;;;;5025762;28;20423;-80
2023/05/20 05:27:49;;;;;;;7.25;3.80;;;10.50;99.90;;;;;;5027065;28;20427;-76
2023/05/20 05:30:15;;;;;;;3.75;2.55;;;10.60;99.90;;;;;;5027112;28;20418;-80
2023/05/20 05:32:41;;;;;;;8.35;2.97;;;10.70;99.90;;;;;;5025921;28;20438;-77
2023/05/20 05:35:07;;;;;;;6.38;3.25;;;10.70;99.90;;;;;;5024293;28;20780;-77
2023/05/20 05:37:33;;;;;;;4.43;2.80;;;10.80;99.90;;;;;;5023344;28;20549;-78
2023/05/20 05:39:59;;;;;;;8.30;3.50;;;10.90;99.90;;;;;;5022853;28;20431;-81
2023/05/20 05:42:24;;;;;;;6.13;2.90;;;11.00;99.90;;;;;;5027043;28;20473;-79
2023/05/20 05:44:50;;;;;;;8.07;2.47;;;11.10;99.90;;;;;;5024530;28;20492;-84
2023/05/20 05:47:16;;;;;;;5.78;2.50;;;11.20;99.90;;;;;;5028252;28;20526;-81
2023/05/20 05:49:42;;;;;;;5.60;2.70;;;11.30;99.90;;;;;;5029582;28;20838;-85
2023/05/20 05:52:07;;;;;;;7.43;2.45;;;11.30;99.90;;;;;;5035442;28;20474;-78
2023/05/20 05:54:33;;;;;;;7.13;3.72;;;11.30;99.90;;;;;;5024572;28;20753;-82
2023/05/20 05:56:59;;;;;;;5.15;2.22;;;11.30;99.90;;;;;;5022355;28;20423;-82
2023/05/20 05:59:25;;;;;;;4.13;2.10;;;11.30;99.90;;;;;;5022906;28;20416;-78
2023/05/20 06:01:50;;;;;;;5.45;2.00;;;11.30;99.90;;;;;;5025695;28;20994;-81
2023/05/20 06:04:16;;;;;;;6.13;2.60;;;11.40;99.90;;;;;;5025329;28;20425;-81
2023/05/20 06:06:42;;;;;;;5.80;3.23;;;11.40;99.90;;;;;;5027647;28;20481;-77
2023/05/20 06:09:07;;;;;;;5.37;2.13;;;11.50;99.90;;;;;;5023390;28;20538;-78
2023/05/20 06:11:33;;;;;;;5.80;2.13;;;11.70;99.90;;;;;;5025945;28;20980;-75
2023/05/20 06:14:00;;;;;;;3.28;2.15;;;11.80;99.90;;;;;;5022576;28;20422;-76
2023/05/20 06:16:25;;;;;;;5.32;2.00;;;11.90;99.90;;;;;;5026175;28;20421;-76
2023/05/20 06:18:54;;;;;;;7.07;2.50;;;12.10;99.90;;;;;;5026405;28;20785;-77
2023/05/20 06:21:20;;;;;;;4.25;2.10;;;12.20;99.90;;;;;;5024016;28;20438;-76
2023/05/20 06:23:45;;;;;;;3.13;1.97;;;12.30;99.90;;;;;;5023467;28;20433;-74
2023/05/20 06:26:11;;;;;;;4.07;2.40;;;12.40;99.90;;;;;;5024586;28;20446;-77
2023/05/20 06:28:38;;;;;;;5.53;2.33;;;12.70;99.90;;;;;;5024228;28;20477;-76
2023/05/20 06:31:05;;;;;;;4.45;2.00;;;12.70;99.90;;;;;;5023553;28;20427;-76
2023/05/20 06:33:30;;;;;;;3.03;1.77;;;12.70;99.90;;;;;;5025837;28;20785;-76
2023/05/20 06:35:57;;;;;;;3.03;2.08;;;12.70;99.90;;;;;;5026158;28;20438;-78
2023/05/20 06:38:23;;;;;;;4.72;1.65;;;12.80;99.90;;;;;;5017687;28;20909;-77
2023/05/20 06:40:50;;;;;;;3.25;1.30;;;12.90;99.90;;;;;;5024414;28;20518;-81
2023/05/20 06:43:16;;;;;;;3.60;1.50;;;12.90;99.90;;;;;;5022285;28;20505;-75
2023/05/20 06:45:42;;;;;;;2.30;1.48;;;13.00;99.90;;;;;;5025994;28;20422;-76
2023/05/20 06:48:08;;;;;;;2.83;1.45;;;13.10;99.90;;;;;;5025670;28;20431;-75
2023/05/20 06:50:34;;;;;;;5.65;2.22;;;13.10;99.90;;;;;;5026658;28;20897;-75
2023/05/20 06:53:00;;;;;;;3.85;1.50;;;13.30;99.90;;;;;;5021462;28;20502;-77
2023/05/20 06:55:26;;;;;;;3.00;1.58;;;13.30;99.90;;;;;;5019175;28;20485;-77
2023/05/20 06:57:52;;;;;;;5.32;1.40;;;13.90;99.90;;;;;;5024736;28;20842;-78
2023/05/20 07:00:17;;;;;;;3.53;1.98;;;13.80;99.90;;;;;;5024399;28;20514;-75
2023/05/20 07:02:43;;;;;;;3.33;1.52;;;13.90;99.90;;;;;;5026524;28;20748;-78
2023/05/20 07:05:09;;;;;;;3.20;1.50;;;13.90;99.90;;;;;;5020314;28;20506;-78
2023/05/20 07:07:35;;;;;;;3.47;1.65;;;15.30;99.90;;;;;;5007609;28;20420;-79
2023/05/20 07:10:04;;;;;;;3.33;1.20;;;16.00;99.90;;;;;;5022517;28;20521;-78
2023/05/20 07:12:30;;;;;;;4.63;1.67;;;16.70;99.90;;;;;;5026116;28;20434;-84
2023/05/20 07:14:56;;;;;;;3.72;1.52;;;16.50;99.90;;;;;;5028097;28;20444;-80
2023/05/20 07:17:23;;;;;;;2.75;1.38;;;16.50;99.90;;;;;;5028622;28;20538;-79
2023/05/20 07:19:49;;;;;;;3.30;1.38;;;16.70;99.90;;;;;;5028265;28;20426;-80
2023/05/20 07:22:14;;;;;;;3.58;1.20;;;17.10;99.90;;;;;;5026426;28;20781;-82
2023/05/20 07:24:40;;;;;;;3.83;1.73;;;17.10;99.90;;;;;;5029598;28;20447;-82
2023/05/20 07:27:06;;;;;;;4.05;1.45;;;17.60;99.90;;;;;;5026377;28;20450;-80
2023/05/20 07:29:32;;;;;;;4.27;1.20;;;17.20;99.90;;;;;;5028727;28;20415;-81
2023/05/20 07:31:58;;;;;;;4.00;1.10;;;17.40;99.90;;;;;;5030820;28;21308;-83
2023/05/20 07:34:24;;;;;;;4.80;1.43;;;17.90;99.90;;;;;;5020906;28;20425;-73
2023/05/20 07:36:50;;;;;;;4.10;1.00;;;16.20;99.90;;;;;;5026646;28;20431;-75
2023/05/20 07:39:16;;;;;;;3.00;1.80;;;16.40;99.90;;;;;;5025688;28;20772;-78
2023/05/20 07:41:41;;;;;;;6.90;1.23;;;15.70;99.90;;;;;;5027719;28;20493;-74
2023/05/20 07:44:07;;;;;;;16.17;1.43;;;15.30;99.90;;;;;;5029595;28;20799;-81
2023/05/20 07:46:34;;;;;;;3.20;1.23;;;15.40;99.90;;;;;;5027245;28;20950;-77
2023/05/20 07:48:59;;;;;;;1.60;1.00;;;15.40;99.90;;;;;;5028769;28;20473;-78
2023/05/20 07:51:25;;;;;;;4.68;1.05;;;15.40;99.90;;;;;;5023630;28;20825;-79
2023/05/20 07:53:51;;;;;;;4.05;1.02;;;15.50;99.90;;;;;;5023677;28;20947;-80
2023/05/20 07:56:17;;;;;;;3.80;1.65;;;15.60;99.90;;;;;;5030717;28;20411;-78
2023/05/20 07:58:50;;;;;;;3.47;1.10;;;15.50;99.90;;;;;;5030191;28;20768;-79
2023/05/20 08:01:16;;;;;;;6.60;2.10;;;15.40;99.90;;;;;;5027919;28;20411;-79
2023/05/20 08:03:41;;;;;;;1.80;1.25;;;15.80;99.90;;;;;;5028654;28;20494;-79
2023/05/20 08:06:07;;;;;;;2.87;1.47;;;15.80;99.90;;;;;;5028193;28;20522;-78
2023/05/20 08:08:33;;;;;;;3.10;1.20;;;16.00;99.90;;;;;;5025549;28;21225;-79
2023/05/20 08:11:00;;;;;;;1.77;1.08;;;16.10;99.90;;;;;;5028401;28;20479;-79
2023/05/20 08:13:26;;;;;;;5.80;2.10;;;15.80;99.90;;;;;;5026482;28;20466;-79
2023/05/20 08:15:53;;;;;;;3.85;1.10;;;15.80;99.90;;;;;;5025972;28;20477;-81
2023/05/20 08:18:19;;;;;;;4.93;1.33;;;15.60;99.90;;;;;;5028305;28;20431;-79
2023/05/20 08:20:44;;;;;;;1.70;1.10;;;15.70;99.90;;;;;;5025023;28;20601;-78
2023/05/20 08:23:10;;;;;;;3.65;1.40;;;16.00;99.90;;;;;;5025521;28;21037;-77
2023/05/20 08:25:37;;;;;;;5.15;1.40;;;16.20;99.90;;;;;;5026870;28;20419;-79
2023/05/20 08:28:04;;;;;;;2.90;1.17;;;16.30;99.90;;;;;;5026809;28;20615;-81
2023/05/20 08:30:30;;;;;;;2.45;1.20;;;16.10;99.90;;;;;;5026120;28;20454;-79
2023/05/20 08:32:56;;;;;;;2.60;1.15;;;16.10;99.90;;;;;;5030488;28;20969;-80
2023/05/20 08:35:23;;;;;;;4.30;1.35;;;16.30;99.90;;;;;;5028709;28;20550;-78
2023/05/20 08:37:48;;;;;;;3.13;1.33;;;15.80;99.90;;;;;;5028413;28;20434;-80
2023/05/20 08:40:14;;;;;;;3.77;1.60;;;16.20;99.90;;;;;;5028611;28;20427;-73
2023/05/20 08:42:42;;;;;;;4.20;1.35;;;16.20;99.90;;;;;;5032274;28;20437;-79
2023/05/20 08:45:10;;;;;;;6.97;1.50;;;16.20;99.90;;;;;;5034513;28;20770;-82
2023/05/20 08:47:40;;;;;;;6.85;2.13;;;16.30;99.90;;;;;;5014027;28;20437;-79
2023/05/20 08:50:07;;;;;;;3.25;1.15;;;16.50;99.90;;;;;;5026325;28;20959;-80
2023/05/20 08:52:34;;;;;;;4.88;1.40;;;16.50;99.90;;;;;;5016164;28;20434;-79
2023/05/20 08:55:01;;;;;;;3.20;1.70;;;16.60;99.90;;;;;;5029388;28;20498;-82
2023/05/20 08:57:28;;;;;;;5.40;1.90;;;16.50;99.90;;;;;;5026106;28;20499;-79
2023/05/20 08:59:56;;;;;;;2.72;1.30;;;16.30;99.90;;;;;;5028633;28;21149;-79
2023/05/20 09:02:22;;;;;;;6.10;1.50;;;16.50;99.90;;;;;;5028900;28;20435;-80
2023/05/20 09:04:47;;;;;;;3.17;1.30;;;16.70;99.90;;;;;;5027271;28;20465;-79
2023/05/20 09:07:13;;;;;;;2.50;1.23;;;16.60;99.90;;;;;;5025512;28;20957;-81
2023/05/20 09:09:40;;;;;;;5.50;1.87;;;16.80;99.90;;;;;;5025582;28;20862;-80
2023/05/20 09:12:06;;;;;;;5.78;1.17;;;16.90;99.90;;;;;;5025027;28;20466;-82
2023/05/20 09:14:31;;;;;;;2.30;1.30;;;16.60;99.90;;;;;;5025869;28;20423;-79
2023/05/20 09:16:57;;;;;;;2.75;1.30;;;16.80;99.90;;;;;;5027892;28;20430;-80
2023/05/20 09:19:23;;;;;;;3.63;1.92;;;16.90;99.90;;;;;;5025537;28;20419;-78
2023/05/20 09:21:57;;;;;;;4.13;1.20;;;17.50;99.90;;;;;;5026692;28;20430;-80
2023/05/20 09:24:24;;;;;;;4.40;1.90;;;17.30;99.90;;;;;;5027658;28;20442;-79
2023/05/20 09:26:50;;;;;;;3.93;1.63;;;17.10;99.90;;;;;;5027473;28;20450;-80
2023/05/20 09:29:16;;;;;;;3.58;1.48;;;17.20;99.90;;;;;;5026299;28;21202;-81
2023/05/20 09:31:42;;;;;;;3.55;1.58;;;17.20;99.90;;;;;;5025183;28;20430;-80
2023/05/20 09:34:08;;;;;;;2.80;1.58;;;17.20;99.90;;;;;;5026058;28;20435;-80
2023/05/20 09:36:34;;;;;;;3.25;1.63;;;17.30;99.90;;;;;;5026348;28;20458;-79
2023/05/20 09:39:03;;;;;;;3.00;1.45;;;17.70;99.90;;;;;;5026290;28;20418;-82
2023/05/20 09:41:37;;;;;;;3.17;1.45;;;17.70;99.90;;;;;;5026301;28;20520;-81
2023/05/20 09:44:06;;;;;;;2.33;1.40;;;18.00;99.90;;;;;;5026630;28;21155;-81
2023/05/20 09:46:33;;;;;;;5.87;1.57;;;17.60;99.90;;;;;;5025639;28;20554;-80
2023/05/20 09:48:59;;;;;;;6.65;1.70;;;17.70;99.90;;;;;;5027965;28;20541;-78
2023/05/20 09:51:28;;;;;;;4.03;1.65;;;17.70;99.90;;;;;;5026548;28;20488;-81
2023/05/20 09:53:54;;;;;;;7.15;1.73;;;17.90;99.90;;;;;;5024678;28;20476;-77
2023/05/20 09:56:21;;;;;;;5.17;1.87;;;17.90;99.90;;;;;;5026942;28;20486;-80
2023/05/20 09:58:49;;;;;;;3.30;1.40;;;17.70;99.90;;;;;;5027635;28;20407;-79
2023/05/20 10:01:15;;;;;;;5.45;1.65;;;17.50;99.90;;;;;;5025555;28;20430;-81
2023/05/20 10:03:41;;;;;;;3.67;1.38;;;17.50;99.90;;;;;;5026701;28;20454;-79
2023/05/20 10:06:44;;;;;;;4.55;1.77;;;17.80;99.90;;;;;;5027224;28;20429;-80
2023/05/20 10:09:23;;;;;;;2.30;1.57;;;18.00;99.90;;;;;;5026767;28;20901;-81
2023/05/20 10:12:09;;;;;;;3.95;1.50;;;17.80;99.90;;;;;;5007181;28;20409;-81
2023/05/20 10:15:03;;;;;;;3.97;1.38;;;17.90;99.90;;;;;;5009258;28;20439;-83
2023/05/20 10:17:57;;;;;;;5.25;1.33;;;17.80;99.90;;;;;;5016216;28;20430;-79
2023/05/20 10:20:23;;;;;;;4.10;1.85;;;18.30;99.90;;;;;;5025849;28;20967;-80
2023/05/20 10:22:58;;;;;;;5.87;1.83;;;17.90;99.90;;;;;;5025910;28;20438;-82
2023/05/20 10:25:26;;;;;;;4.75;1.20;;;17.90;99.90;;;;;;5026959;28;20415;-82
2023/05/20 10:28:02;;;;;;;3.50;1.20;;;17.70;99.90;;;;;;5025065;28;20403;-81
2023/05/20 10:30:29;;;;;;;3.05;1.42;;;17.70;99.90;;;;;;5024223;28;20429;-82
2023/05/20 10:32:56;;;;;;;4.72;1.90;;;17.70;99.90;;;;;;5023930;28;20406;-81
2023/05/20 10:35:25;;;;;;;3.97;1.70;;;17.80;99.90;;;;;;5024477;28;20473;-82
2023/05/20 10:37:52;;;;;;;3.85;1.90;;;18.00;99.90;;;;;;5025975;28;20830;-81
2023/05/20 10:40:19;;;;;;;3.87;1.90;;;18.30;99.90;;;;;;5025953;28;20423;-79
2023/05/20 10:42:46;;;;;;;4.82;1.70;;;17.70;99.90;;;;;;5026362;28;20431;-81
2023/05/20 10:45:24;;;;;;;4.32;2.00;;;18.20;99.90;;;;;;5025967;28;20429;-79
2023/05/20 10:47:57;;;;;;;7.93;2.13;;;17.60;99.90;;;;;;5026436;28;20425;-81
2023/05/20 10:50:33;;;;;;;4.15;1.50;;;17.70;99.90;;;;;;5028791;28;20433;-81
2023/05/20 10:53:06;;;;;;;4.03;1.50;;;18.00;99.90;;;;;;5029431;28;20929;-79
2023/05/20 10:55:37;;;;;;;5.65;3.20;;;17.80;99.90;;;;;;5029156;28;20925;-77
2023/05/20 10:58:04;;;;;;;4.57;1.48;;;18.40;99.90;;;;;;5019052;28;20814;-80
2023/05/20 11:00:33;;;;;;;4.72;1.83;;;18.20;99.90;;;;;;5028675;28;20932;-80
2023/05/20 11:02:59;;;;;;;6.47;1.88;;;17.90;99.90;;;;;;5029805;28;20789;-79
2023/05/20 11:05:26;;;;;;;4.38;1.60;;;17.70;99.90;;;;;;5028403;28;20978;-78
2023/05/20 11:08:01;;;;;;;2.95;1.88;;;18.00;99.90;;;;;;5028744;28;20766;-83
2023/05/20 11:10:26;;;;;;;5.43;1.90;;;18.00;99.90;;;;;;5027880;28;20452;-80
2023/05/20 11:12:53;;;;;;;10.10;2.35;;;17.70;99.90;;;;;;5028647;28;20771;-80
2023/05/20 11:15:19;;;;;;;4.32;1.63;;;17.50;99.90;;;;;;5029426;28;21321;-79
2023/05/20 11:17:54;;;;;;;2.95;1.70;;;18.00;99.90;;;;;;5029567;28;20411;-81
2023/05/20 11:20:25;;;;;;;3.90;1.70;;;18.40;99.90;;;;;;5027308;28;20430;-81
2023/05/20 11:22:51;;;;;;;6.55;2.33;;;18.10;99.90;;;;;;5028167;28;20929;-81
2023/05/20 11:25:18;;;;;;;4.20;1.90;;;17.70;99.90;;;;;;5030402;28;20941;-82
2023/05/20 11:27:44;;;;;;;3.78;1.80;;;17.90;99.90;;;;;;5029415;28;20460;-78
2023/05/20 11:30:15;;;;;;;5.28;2.60;;;17.90;99.90;;;;;;5028827;28;20909;-77
2023/05/20 11:32:43;;;;;;;7.75;3.28;;;18.80;99.90;;;;;;5029798;28;20415;-75
2023/05/20 11:35:23;;;;;;;4.10;1.90;;;18.70;99.90;;;;;;5028877;28;20477;-79
2023/05/20 11:38:15;;;;;;;5.27;2.40;;;18.10;99.90;;;;;;5029054;28;20417;-81
2023/05/20 11:40:45;;;;;;;7.15;2.60;;;17.50;99.90;;;;;;5025022;28;20430;-80
2023/05/20 11:43:12;;;;;;;6.70;2.55;;;17.50;99.90;;;;;;5027595;28;20434;-79
2023/05/20 11:45:40;;;;;;;15.82;3.17;;;18.20;99.90;;;;;;5028342;28;20433;-81
2023/05/20 11:48:07;;;;;;;5.35;2.17;;;18.50;99.90;;;;;;5031047;28;20411;-84
2023/05/20 11:50:39;;;;;;;6.72;2.30;;;18.10;99.90;;;;;;5027588;28;20418;-82
2023/05/20 11:53:06;;;;;;;5.20;2.40;;;17.70;99.90;;;;;;5025007;28;20489;-83
2023/05/20 11:55:33;;;;;;;6.53;2.40;;;18.20;99.90;;;;;;5025269;28;20921;-80
2023/05/20 11:58:00;;;;;;;5.10;2.20;;;18.10;99.90;;;;;;5028307;28;20771;-80
2023/05/20 12:00:26;;;;;;;6.63;2.58;;;18.00;99.90;;;;;;5026699;28;20438;-84
2023/05/20 12:02:52;;;;;;;7.33;2.40;;;17.60;99.90;;;;;;5028786;28;20999;-76
2023/05/20 12:05:18;;;;;;;7.00;2.87;;;18.30;99.90;;;;;;5025136;28;20465;-77
2023/05/20 12:07:44;;;;;;;8.23;3.10;;;18.50;99.90;;;;;;5026907;28;20423;-82
2023/05/20 12:10:10;;;;;;;6.63;2.92;;;18.20;99.90;;;;;;5009590;28;20438;-82
2023/05/20 12:12:36;;;;;;;4.93;2.70;;;17.90;99.90;;;;;;5027204;28;20438;-81
2023/05/20 12:15:03;;;;;;;7.20;3.23;;;17.80;99.90;;;;;;5030522;28;20407;-81
2023/05/20 12:17:31;;;;;;;7.95;2.83;;;18.00;99.90;;;;;;5028192;28;20446;-78
2023/05/20 12:19:57;;;;;;;7.75;2.75;;;18.20;99.90;;;;;;5026141;28;20441;-80
2023/05/20 12:22:22;;;;;;;8.93;3.53;;;17.80;99.90;;;;;;5027362;28;20439;-84
2023/05/20 12:24:49;;;;;;;5.63;2.30;;;17.70;99.90;;;;;;5030033;28;20503;-80
2023/05/20 12:27:14;;;;;;;5.15;2.50;;;17.60;99.90;;;;;;5030586;28;20434;-80
2023/05/20 12:29:40;;;;;;;6.87;2.90;;;18.10;99.90;;;;;;5030460;28;20882;-79
2023/05/20 12:32:06;;;;;;;3.72;1.98;;;18.10;99.90;;;;;;5027356;28;20445;-82
2023/05/20 12:34:32;;;;;;;5.55;3.10;;;17.90;99.90;;;;;;5029990;28;20419;-82
2023/05/20 12:36:57;;;;;;;6.90;2.92;;;18.00;99.90;;;;;;5020490;28;20433;-81
2023/05/20 12:39:23;;;;;;;6.53;3.00;;;18.30;99.90;;;;;;5026621;28;20812;-79
2023/05/20 12:41:52;;;;;;;5.43;2.93;;;18.40;99.90;;;;;;5026634;28;20431;-82
2023/05/20 12:44:17;;;;;;;5.43;2.65;;;18.40;99.90;;;;;;5027897;28;20446;-72
2023/05/20 12:46:43;;;;;;;6.97;2.83;;;18.60;99.90;;;;;;5028873;28;20458;-78